createdAt,value
2022-12-22T00:01:54.886Z,14.87
2022-12-22T00:04:41.541Z,14.88
2022-12-22T00:07:27.704Z,14.71
2022-12-22T00:10:13.409Z,14.65
2022-12-22T00:12:59.348Z,14.83
2022-12-22T00:15:45.537Z,15.32
2022-12-22T00:18:33.437Z,15.05
2022-12-22T00:21:19.308Z,14.98
2022-12-22T00:24:05.032Z,15.06
2022-12-22T00:26:52.253Z,14.98
2022-12-22T00:29:38.190Z,15.14
2022-12-22T00:32:24.832Z,15.15
2022-12-22T00:35:10.920Z,14.71
2022-12-22T00:37:56.836Z,14.81
2022-12-22T00:40:47.366Z,14.81
2022-12-22T00:43:33.766Z,14.65
2022-12-22T00:46:21.660Z,14.63
2022-12-22T00:49:08.133Z,14.77
2022-12-22T00:51:54.103Z,14.68
2022-12-22T00:54:40.981Z,14.71
2022-12-22T00:57:35.344Z,14.44
2022-12-22T01:00:22.819Z,14.54
2022-12-22T01:03:08.782Z,14.58
2022-12-22T01:05:54.878Z,14.46
2022-12-22T01:08:40.699Z,14.36
2022-12-22T01:11:26.880Z,14.67
2022-12-22T01:14:12.656Z,14.69
2022-12-22T01:16:58.576Z,14.61
2022-12-22T01:19:44.643Z,14.85
2022-12-22T01:22:32.013Z,14.93
2022-12-22T01:25:18.037Z,15.06
2022-12-22T01:28:03.933Z,14.90
2022-12-22T01:30:50.066Z,14.72
2022-12-22T01:33:35.937Z,15.06
2022-12-22T01:36:21.974Z,14.99
2022-12-22T01:39:07.883Z,14.68
2022-12-22T01:41:54.381Z,14.94
2022-12-22T01:44:40.209Z,14.94
2022-12-22T01:47:50.600Z,15.04
2022-12-22T01:50:38.198Z,15.09
2022-12-22T01:53:26.743Z,14.64
2022-12-22T01:56:13.190Z,14.79
2022-12-22T01:59:02.138Z,15.23
2022-12-22T02:01:49.179Z,15.19
2022-12-22T02:04:36.639Z,14.99
2022-12-22T02:07:46.571Z,14.69
2022-12-22T02:11:04.088Z,15.09
2022-12-22T02:14:12.542Z,14.68
2022-12-22T02:17:20.504Z,14.88
2022-12-22T02:20:21.644Z,15.28
2022-12-22T02:23:22.868Z,14.54
2022-12-22T02:26:36.540Z,14.54
2022-12-22T02:29:23.984Z,14.63
2022-12-22T02:32:09.953Z,15.04
2022-12-22T02:34:55.706Z,15.08
2022-12-22T02:37:49.345Z,15.17
2022-12-22T02:40:44.011Z,15.18
2022-12-22T02:43:36.006Z,15.10
2022-12-22T02:46:44.132Z,15.13
2022-12-22T02:49:51.249Z,15.20
2022-12-22T02:52:41.611Z,14.94
2022-12-22T02:55:27.518Z,15.05
2022-12-22T02:58:13.547Z,14.88
2022-12-22T03:00:59.355Z,14.95
2022-12-22T03:03:45.650Z,14.96
2022-12-22T03:06:31.748Z,15.11
2022-12-22T03:09:17.651Z,15.29
2022-12-22T03:12:03.587Z,15.29
2022-12-22T03:14:49.522Z,15.39
2022-12-22T03:17:35.378Z,14.95
2022-12-22T03:20:21.431Z,14.98
2022-12-22T03:23:07.538Z,15.20
2022-12-22T03:25:54.340Z,15.01
2022-12-22T03:28:26.620Z,14.63
2022-12-22T03:31:01.404Z,14.87
2022-12-22T03:33:29.670Z,14.96
2022-12-22T03:35:57.099Z,14.99
2022-12-22T03:38:24.499Z,14.70
2022-12-22T03:40:51.762Z,14.62
2022-12-22T03:43:38.280Z,14.71
2022-12-22T03:46:29.020Z,15.02
2022-12-22T03:49:12.749Z,15.13
2022-12-22T03:51:48.842Z,14.45
2022-12-22T03:54:23.548Z,14.54
2022-12-22T03:56:51.636Z,14.40
2022-12-22T03:59:19.334Z,14.89
2022-12-22T04:01:49.563Z,14.77
2022-12-22T04:04:18.528Z,14.23
2022-12-22T04:06:46.650Z,14.27
2022-12-22T04:09:14.304Z,13.95
2022-12-22T04:12:00.546Z,14.16
2022-12-22T04:14:33.546Z,14.30
2022-12-22T04:17:05.570Z,14.18
2022-12-22T04:19:33.177Z,14.22
2022-12-22T04:22:00.771Z,14.71
2022-12-22T04:24:28.060Z,14.02
2022-12-22T04:26:55.329Z,14.46
2022-12-22T04:29:22.597Z,14.26
2022-12-22T04:31:49.883Z,13.73
2022-12-22T04:34:17.097Z,13.26
2022-12-22T04:36:44.423Z,13.24
2022-12-22T04:39:11.667Z,13.79
2022-12-22T04:41:39.019Z,13.62
2022-12-22T04:44:06.590Z,13.54
2022-12-22T04:46:33.898Z,13.54
2022-12-22T04:49:01.293Z,13.67
2022-12-22T04:51:28.835Z,13.59
2022-12-22T04:53:56.305Z,13.51
2022-12-22T04:56:23.706Z,13.10
2022-12-22T04:58:51.012Z,13.54
2022-12-22T05:01:18.927Z,13.80
2022-12-22T05:03:47.045Z,13.40
2022-12-22T05:06:14.921Z,13.31
2022-12-22T05:08:42.470Z,13.53
2022-12-22T05:11:09.852Z,13.85
2022-12-22T05:13:37.213Z,13.91
2022-12-22T05:16:09.905Z,13.41
2022-12-22T05:18:38.121Z,13.64
2022-12-22T05:21:11.900Z,13.39
2022-12-22T05:23:39.323Z,13.27
2022-12-22T05:26:06.801Z,13.20
2022-12-22T05:28:34.186Z,13.36
2022-12-22T05:31:06.764Z,13.27
2022-12-22T05:33:34.833Z,13.11
2022-12-22T05:36:02.469Z,13.50
2022-12-22T05:38:29.778Z,13.34
2022-12-22T05:41:03.488Z,13.74
2022-12-22T05:43:33.066Z,13.48
2022-12-22T05:46:08.674Z,13.98
2022-12-22T05:48:38.971Z,13.68
2022-12-22T05:51:08.314Z,13.96
2022-12-22T05:53:36.586Z,13.65
2022-12-22T05:56:04.175Z,13.73
2022-12-22T05:58:31.418Z,13.55
2022-12-22T06:00:59.645Z,13.12
2022-12-22T06:03:27.972Z,13.39
2022-12-22T06:05:55.704Z,13.57
2022-12-22T06:08:23.574Z,13.65
2022-12-22T06:10:51.241Z,13.05
2022-12-22T06:13:18.519Z,13.34
2022-12-22T06:15:45.824Z,13.20
2022-12-22T06:18:13.576Z,12.85
2022-12-22T06:20:40.922Z,13.31
2022-12-22T06:23:08.360Z,13.09
2022-12-22T06:25:36.078Z,12.93
2022-12-22T06:28:03.779Z,13.05
2022-12-22T06:30:33.574Z,13.02
2022-12-22T06:33:01.592Z,13.05
2022-12-22T06:35:29.018Z,13.18
2022-12-22T06:37:56.565Z,13.90
2022-12-22T06:40:23.770Z,13.35
2022-12-22T06:43:10.271Z,13.74
2022-12-22T06:45:42.840Z,13.77
2022-12-22T06:48:11.425Z,13.36
2022-12-22T06:50:38.868Z,13.14
2022-12-22T06:53:07.000Z,13.20
2022-12-22T06:55:34.577Z,13.26
2022-12-22T06:58:02.571Z,13.21
2022-12-22T07:00:29.875Z,13.40
2022-12-22T07:02:57.388Z,13.77
2022-12-22T07:05:25.053Z,13.43
2022-12-22T07:07:52.944Z,13.39
2022-12-22T07:10:40.244Z,13.16
2022-12-22T07:13:19.367Z,13.29
2022-12-22T07:15:53.789Z,13.63
2022-12-22T07:18:27.501Z,13.78
2022-12-22T07:20:54.942Z,13.25
2022-12-22T07:23:22.291Z,13.34
2022-12-22T07:25:49.564Z,13.26
2022-12-22T07:28:20.662Z,13.01
2022-12-22T07:30:52.494Z,13.40
2022-12-22T07:33:19.923Z,13.65
2022-12-22T07:35:47.288Z,13.53
2022-12-22T07:38:14.688Z,13.64
2022-12-22T07:40:43.132Z,14.08
2022-12-22T07:43:11.565Z,13.55
2022-12-22T07:45:39.422Z,13.56
2022-12-22T07:48:26.751Z,13.41
2022-12-22T07:50:55.597Z,13.30
2022-12-22T07:53:22.841Z,13.44
2022-12-22T07:55:50.166Z,13.75
2022-12-22T07:58:17.418Z,13.53
2022-12-22T08:00:44.696Z,13.39
2022-12-22T08:03:12.108Z,13.65
2022-12-22T08:05:39.497Z,13.49
2022-12-22T08:08:07.798Z,13.86
2022-12-22T08:10:35.003Z,13.65
2022-12-22T08:13:02.410Z,13.36
2022-12-22T08:15:29.701Z,13.75
2022-12-22T08:17:57.082Z,13.76
2022-12-22T08:20:24.406Z,13.96
2022-12-22T08:22:51.943Z,13.89
2022-12-22T08:25:19.211Z,13.85
2022-12-22T08:27:51.729Z,13.72
2022-12-22T08:30:19.057Z,14.06
2022-12-22T08:32:49.069Z,14.02
2022-12-22T08:35:16.711Z,14.02
2022-12-22T08:37:45.666Z,14.28
2022-12-22T08:40:18.645Z,13.90
2022-12-22T08:42:47.099Z,14.00
2022-12-22T08:45:14.593Z,13.88
2022-12-22T08:47:42.775Z,14.04
2022-12-22T08:50:10.634Z,13.92
2022-12-22T08:52:38.328Z,13.98
2022-12-22T08:55:06.611Z,13.85
2022-12-22T08:57:34.006Z,13.77
2022-12-22T09:00:01.686Z,13.89
2022-12-22T09:02:29.094Z,13.82
2022-12-22T09:04:56.562Z,13.99
2022-12-22T09:07:23.882Z,13.89
2022-12-22T09:09:51.665Z,13.68
2022-12-22T09:12:19.007Z,13.48
2022-12-22T09:14:46.341Z,13.64
2022-12-22T09:17:13.572Z,13.86
2022-12-22T09:19:40.850Z,13.80
2022-12-22T09:22:09.886Z,13.87
2022-12-22T09:24:37.253Z,14.09
2022-12-22T09:27:06.638Z,13.87
2022-12-22T09:29:33.904Z,13.84
2022-12-22T09:32:01.188Z,13.65
2022-12-22T09:34:28.441Z,14.07
2022-12-22T09:36:55.769Z,13.95
2022-12-22T09:39:28.531Z,13.80
2022-12-22T09:41:57.844Z,13.95
2022-12-22T09:44:38.035Z,14.20
2022-12-22T09:47:10.219Z,14.03
2022-12-22T09:49:37.534Z,14.21
2022-12-22T09:52:05.177Z,14.07
2022-12-22T09:54:32.467Z,14.13
2022-12-22T09:57:00.135Z,14.16
2022-12-22T09:59:28.483Z,14.21
2022-12-22T10:02:11.205Z,14.40
2022-12-22T10:04:41.538Z,14.39
2022-12-22T10:07:29.012Z,14.36
2022-12-22T10:09:56.391Z,14.07
2022-12-22T10:12:26.017Z,14.29
2022-12-22T10:14:54.983Z,14.35
2022-12-22T10:17:33.393Z,14.22
2022-12-22T10:20:19.197Z,14.06
2022-12-22T10:22:48.806Z,14.51
2022-12-22T10:25:52.470Z,14.31
2022-12-22T10:28:24.434Z,14.44
2022-12-22T10:31:10.921Z,14.35
2022-12-22T10:33:45.896Z,14.39
2022-12-22T10:36:19.629Z,14.26
2022-12-22T10:39:13.196Z,14.37
2022-12-22T10:41:42.984Z,14.47
2022-12-22T10:44:21.392Z,14.43
2022-12-22T10:46:48.602Z,14.64
2022-12-22T10:49:24.453Z,14.57
2022-12-22T10:52:14.357Z,14.44
2022-12-22T10:54:44.676Z,14.50
2022-12-22T10:57:15.002Z,14.51
2022-12-22T11:00:02.229Z,14.51
2022-12-22T11:02:38.213Z,14.58
2022-12-22T11:05:11.854Z,14.45
2022-12-22T11:07:41.561Z,14.53
2022-12-22T11:10:18.645Z,14.64
2022-12-22T11:13:02.467Z,14.59
2022-12-22T11:15:34.239Z,14.66
2022-12-22T11:18:01.466Z,14.69
2022-12-22T11:20:45.934Z,14.81
2022-12-22T11:23:25.458Z,14.43
2022-12-22T11:26:11.277Z,14.54
2022-12-22T11:28:50.624Z,14.72
2022-12-22T11:31:23.718Z,14.92
2022-12-22T11:33:51.056Z,14.69
2022-12-22T11:36:28.068Z,14.87
2022-12-22T11:39:01.601Z,14.70
2022-12-22T11:41:46.992Z,14.68
2022-12-22T11:44:42.295Z,14.63
2022-12-22T11:47:25.466Z,14.64
2022-12-22T11:49:55.948Z,14.62
2022-12-22T11:52:48.427Z,14.68
2022-12-22T11:55:34.758Z,14.90
2022-12-22T11:58:21.791Z,14.89
2022-12-22T12:01:14.955Z,14.90
2022-12-22T12:04:06.065Z,14.92
2022-12-22T12:06:45.941Z,15.42
2022-12-22T12:09:28.258Z,15.14
2022-12-22T12:12:05.054Z,15.13
2022-12-22T12:14:34.891Z,15.11
2022-12-22T12:17:28.555Z,15.17
2022-12-22T12:20:20.282Z,15.02
2022-12-22T12:22:47.576Z,15.19
2022-12-22T12:25:46.201Z,15.16
2022-12-22T12:28:38.199Z,15.12
2022-12-22T12:31:06.964Z,15.12
2022-12-22T12:33:37.627Z,15.07
2022-12-22T12:36:47.847Z,14.89
2022-12-22T12:39:24.142Z,15.01
2022-12-22T12:41:51.343Z,15.06
2022-12-22T12:44:22.204Z,15.31
2022-12-22T12:46:55.293Z,15.36
2022-12-22T12:49:34.763Z,15.17
2022-12-22T12:52:08.550Z,15.02
2022-12-22T12:54:40.614Z,15.06
2022-12-22T12:57:07.968Z,15.01
2022-12-22T12:59:41.201Z,15.07
2022-12-22T13:02:26.986Z,14.77
2022-12-22T13:05:06.762Z,14.71
2022-12-22T13:08:16.558Z,14.65
2022-12-22T13:11:31.147Z,14.53
2022-12-22T13:14:03.639Z,14.58
2022-12-22T13:16:33.693Z,14.56
2022-12-22T13:19:03.051Z,14.39
2022-12-22T13:21:54.937Z,14.42
2022-12-22T13:27:14.632Z,14.38
2022-12-22T13:29:45.130Z,14.48
2022-12-22T13:30:51.198Z,14.23
2022-12-22T13:32:33.394Z,14.44
2022-12-22T13:35:32.005Z,14.29
2022-12-22T13:38:00.977Z,14.37
2022-12-22T13:40:31.412Z,14.22
2022-12-22T13:43:11.763Z,14.15
2022-12-22T13:45:40.228Z,14.17
2022-12-22T13:48:13.948Z,14.14
2022-12-22T13:51:01.495Z,14.09
2022-12-22T13:54:07.969Z,14.21
2022-12-22T13:56:46.292Z,14.29
2022-12-22T13:59:35.389Z,14.39
2022-12-22T14:02:08.476Z,14.29
2022-12-22T14:04:37.305Z,14.04
2022-12-22T14:07:14.624Z,13.98
2022-12-22T14:09:50.361Z,14.20
2022-12-22T14:12:24.354Z,14.14
2022-12-22T14:14:53.428Z,14.22
2022-12-22T14:17:23.517Z,14.05
2022-12-22T14:19:52.574Z,14.01
2022-12-22T14:22:24.538Z,13.89
2022-12-22T14:24:57.535Z,14.22
2022-12-22T14:27:39.447Z,14.21
2022-12-22T14:30:19.146Z,13.95
2022-12-22T14:32:54.468Z,14.12
2022-12-22T14:35:22.793Z,13.87
2022-12-22T14:37:52.922Z,13.95
2022-12-22T14:40:30.443Z,14.01
2022-12-22T14:42:59.106Z,14.10
2022-12-22T14:45:26.903Z,14.05
2022-12-22T14:47:55.450Z,13.87
2022-12-22T14:50:27.901Z,13.73
2022-12-22T14:52:57.442Z,13.94
2022-12-22T14:55:36.580Z,13.87
2022-12-22T14:58:03.784Z,14.03
2022-12-22T15:00:42.618Z,14.19
2022-12-22T15:03:25.395Z,14.15
2022-12-22T15:05:52.992Z,13.95
2022-12-22T15:08:42.715Z,13.94
2022-12-22T15:11:12.405Z,14.04
2022-12-22T15:13:39.874Z,13.94
2022-12-22T15:16:10.099Z,14.10
2022-12-22T15:18:37.488Z,13.80
2022-12-22T15:21:05.197Z,13.98
2022-12-22T15:23:32.626Z,14.00
2022-12-22T15:25:59.888Z,13.92
2022-12-22T15:28:27.259Z,13.94
2022-12-22T15:30:54.740Z,13.84
2022-12-22T15:33:22.071Z,13.85
2022-12-22T15:35:49.540Z,13.90
2022-12-22T15:38:19.502Z,13.85
2022-12-22T15:40:47.468Z,13.77
2022-12-22T15:43:55.171Z,14.00
2022-12-22T15:46:04.556Z,13.91
2022-12-22T15:48:34.207Z,14.05
2022-12-22T15:51:03.814Z,13.83
2022-12-22T15:53:32.574Z,13.95
2022-12-22T15:56:00.006Z,14.08
2022-12-22T15:58:32.497Z,13.82
2022-12-22T16:01:00.101Z,13.83
2022-12-22T16:03:27.607Z,13.86
2022-12-22T16:05:55.083Z,13.69
2022-12-22T16:08:31.669Z,13.88
2022-12-22T16:10:59.125Z,13.96
2022-12-22T16:13:27.401Z,13.92
2022-12-22T16:15:57.964Z,14.08
2022-12-22T16:18:25.806Z,14.10
2022-12-22T16:20:53.314Z,13.89
2022-12-22T16:23:23.473Z,13.80
2022-12-22T16:25:55.502Z,13.88
2022-12-22T16:28:26.321Z,13.85
2022-12-22T16:30:53.892Z,13.99
2022-12-22T16:33:21.156Z,13.95
2022-12-22T16:35:48.809Z,13.90
2022-12-22T16:38:19.097Z,13.84
2022-12-22T16:40:49.800Z,14.09
2022-12-22T16:46:03.516Z,14.12
2022-12-22T16:48:34.722Z,14.06
2022-12-22T16:51:02.142Z,14.07
2022-12-22T16:53:29.427Z,14.15
2022-12-22T16:55:58.685Z,14.17
2022-12-22T16:58:25.961Z,13.98
2022-12-22T17:00:53.373Z,14.01
2022-12-22T17:03:25.964Z,14.02
2022-12-22T17:05:55.781Z,14.19
2022-12-22T17:08:34.943Z,14.28
2022-12-22T17:11:10.533Z,14.41
2022-12-22T17:13:39.030Z,14.40
2022-12-22T17:16:06.643Z,14.38
2022-12-22T17:18:35.353Z,14.23
2022-12-22T17:21:04.215Z,14.34
2022-12-22T17:23:47.445Z,14.43
2022-12-22T17:26:17.180Z,14.48
2022-12-22T17:28:44.910Z,14.60
2022-12-22T17:31:17.599Z,14.58
2022-12-22T17:33:45.315Z,14.73
2022-12-22T17:36:20.385Z,14.65
2022-12-22T17:38:47.726Z,14.68
2022-12-22T17:41:17.070Z,14.65
2022-12-22T17:43:45.231Z,14.68
2022-12-22T17:46:15.146Z,14.68
2022-12-22T17:48:43.360Z,14.65
2022-12-22T17:51:28.538Z,14.87
2022-12-22T17:53:57.669Z,14.78
2022-12-22T17:56:26.173Z,14.72
2022-12-22T17:58:53.850Z,14.77
2022-12-22T18:01:32.241Z,14.93
2022-12-22T18:04:00.043Z,14.74
2022-12-22T18:06:33.773Z,14.81
2022-12-22T18:09:01.538Z,14.80
2022-12-22T18:11:28.917Z,14.96
2022-12-22T18:13:57.412Z,14.97
2022-12-22T18:16:25.195Z,14.87
2022-12-22T18:18:52.525Z,14.81
2022-12-22T18:21:22.933Z,14.70
2022-12-22T18:23:51.211Z,15.05
2022-12-22T18:26:21.776Z,14.88
2022-12-22T18:28:49.591Z,15.12
2022-12-22T18:31:17.418Z,15.22
2022-12-22T18:33:44.726Z,14.93
2022-12-22T18:36:20.909Z,14.72
2022-12-22T18:38:51.149Z,14.90
2022-12-22T18:41:22.864Z,15.27
2022-12-22T18:43:50.483Z,15.04
2022-12-22T18:46:18.748Z,15.18
2022-12-22T18:48:47.578Z,15.22
2022-12-22T18:51:25.889Z,15.16
2022-12-22T18:53:54.915Z,15.16
2022-12-22T18:56:22.691Z,15.31
2022-12-22T18:58:50.099Z,15.24
2022-12-22T19:01:26.034Z,15.25
2022-12-22T19:03:55.792Z,15.32
2022-12-22T19:06:23.964Z,15.06
2022-12-22T19:08:51.820Z,15.11
2022-12-22T19:11:23.153Z,15.18
2022-12-22T19:13:52.036Z,15.06
2022-12-22T19:16:24.502Z,15.03
2022-12-22T19:18:52.005Z,14.81
2022-12-22T19:21:19.672Z,14.78
2022-12-22T19:23:47.215Z,14.98
2022-12-22T19:26:23.356Z,14.89
2022-12-22T19:28:53.137Z,14.85
2022-12-22T19:31:25.597Z,15.00
2022-12-22T19:33:53.278Z,14.99
2022-12-22T19:36:25.613Z,15.05
2022-12-22T19:39:02.742Z,14.99
2022-12-22T19:41:44.100Z,14.86
2022-12-22T19:44:17.371Z,14.85
2022-12-22T19:46:45.069Z,14.80
2022-12-22T19:49:17.472Z,14.95
2022-12-22T19:51:46.328Z,14.99
2022-12-22T19:54:13.881Z,15.20
2022-12-22T19:56:42.662Z,15.30
2022-12-22T19:59:29.658Z,15.43
2022-12-22T20:02:00.178Z,15.37
2022-12-22T20:04:28.343Z,15.29
2022-12-22T20:06:55.755Z,15.42
2022-12-22T20:09:22.977Z,15.40
2022-12-22T20:11:50.245Z,15.31
2022-12-22T20:14:18.398Z,15.03
2022-12-22T20:16:46.014Z,15.02
2022-12-22T20:19:14.242Z,15.22
2022-12-22T20:21:42.339Z,15.37
2022-12-22T20:24:18.875Z,15.45
2022-12-22T20:26:50.286Z,15.45
2022-12-22T20:29:21.087Z,15.25
2022-12-22T20:31:48.581Z,15.30
2022-12-22T20:34:15.951Z,15.33
2022-12-22T20:36:43.546Z,15.22
2022-12-22T20:39:16.358Z,15.17
2022-12-22T20:41:50.482Z,15.12
2022-12-22T20:44:20.046Z,15.13
2022-12-22T20:46:47.706Z,15.31
2022-12-22T20:49:15.958Z,15.21
2022-12-22T20:51:43.245Z,15.21
2022-12-22T20:54:14.028Z,15.40
2022-12-22T20:56:43.332Z,15.20
2022-12-22T20:59:17.947Z,15.01
2022-12-22T21:01:46.272Z,15.10
2022-12-22T21:04:14.976Z,15.30
2022-12-22T21:06:49.718Z,15.11
2022-12-22T21:09:17.755Z,14.99
2022-12-22T21:11:45.317Z,14.99
2022-12-22T21:14:13.317Z,14.93
2022-12-22T21:16:41.300Z,14.94
2022-12-22T21:19:09.925Z,15.03
2022-12-22T21:21:37.385Z,15.29
2022-12-22T21:24:05.569Z,15.47
2022-12-22T21:26:36.190Z,15.26
2022-12-22T21:29:06.698Z,15.07
2022-12-22T21:31:33.955Z,15.03
2022-12-22T21:34:01.233Z,15.01
2022-12-22T21:36:31.573Z,15.11
2022-12-22T21:39:01.770Z,15.01
2022-12-22T21:41:47.471Z,14.97
2022-12-22T21:44:14.801Z,15.31
2022-12-22T21:46:43.761Z,14.97
2022-12-22T21:49:21.192Z,15.13
2022-12-22T21:51:49.767Z,15.09
2022-12-22T21:54:18.851Z,15.02
2022-12-22T21:56:46.641Z,14.92
2022-12-22T21:59:14.147Z,15.15
2022-12-22T22:01:41.757Z,15.01
2022-12-22T22:04:09.492Z,14.95
2022-12-22T22:06:37.049Z,14.91
2022-12-22T22:09:05.775Z,14.93
2022-12-22T22:11:33.360Z,15.05
2022-12-22T22:14:00.762Z,15.08
2022-12-22T22:16:28.146Z,15.27
2022-12-22T22:18:55.464Z,15.01
2022-12-22T22:21:22.688Z,15.04
2022-12-22T22:23:50.228Z,14.99
2022-12-22T22:26:17.621Z,15.13
2022-12-22T22:28:44.907Z,15.62
2022-12-22T22:31:12.509Z,15.48
2022-12-22T22:33:39.870Z,15.30
2022-12-22T22:36:08.359Z,15.27
2022-12-22T22:38:36.032Z,14.98
2022-12-22T22:41:03.440Z,15.08
2022-12-22T22:43:30.780Z,15.18
2022-12-22T22:45:58.184Z,15.14
2022-12-22T22:48:25.542Z,15.00
2022-12-22T22:50:52.961Z,15.04
2022-12-22T22:53:20.496Z,14.97
2022-12-22T22:55:47.987Z,15.11
2022-12-22T22:58:15.275Z,15.18
2022-12-22T23:00:42.488Z,15.18
2022-12-22T23:03:10.013Z,15.15
2022-12-22T23:05:37.340Z,15.36
2022-12-22T23:08:04.864Z,15.20
2022-12-22T23:10:37.719Z,15.01
2022-12-22T23:13:08.485Z,14.82
2022-12-22T23:15:35.774Z,14.58
2022-12-22T23:18:03.229Z,14.75
2022-12-22T23:20:30.580Z,14.77
2022-12-22T23:22:57.855Z,14.86
2022-12-22T23:25:25.177Z,14.87
2022-12-22T23:27:52.637Z,14.91
2022-12-22T23:30:19.949Z,15.04
2022-12-22T23:32:47.476Z,15.25
2022-12-22T23:35:14.820Z,15.33
2022-12-22T23:37:42.172Z,15.47
2022-12-22T23:40:50.953Z,15.67
2022-12-22T23:42:57.401Z,15.46
2022-12-22T23:45:24.821Z,15.27
2022-12-22T23:47:52.180Z,15.27
2022-12-22T23:50:19.493Z,15.12
2022-12-22T23:52:49.645Z,15.18
2022-12-22T23:55:19.494Z,15.17
2022-12-22T23:57:47.032Z,15.04
